createdAt,value
2019-05-29T00:03:53.688Z,80
2019-05-29T00:09:10.306Z,79
2019-05-29T00:14:28.172Z,80
2019-05-29T00:24:57.319Z,81
2019-05-29T00:30:15.377Z,81
2019-05-29T00:35:29.453Z,81
2019-05-29T00:40:44.521Z,82
2019-05-29T00:45:59.601Z,82
2019-05-29T00:51:15.516Z,82
2019-05-29T00:56:30.279Z,83
2019-05-29T01:01:46.219Z,83
2019-05-29T01:07:00.090Z,84
2019-05-29T01:12:17.529Z,85
2019-05-29T01:17:33.259Z,86
2019-05-29T01:22:48.421Z,84
2019-05-29T01:28:04.665Z,85
2019-05-29T01:33:25.247Z,86
2019-05-29T01:38:40.438Z,86
2019-05-29T01:43:55.798Z,86
2019-05-29T01:49:11.840Z,86
2019-05-29T01:54:28.380Z,86
2019-05-29T01:59:43.484Z,86
2019-05-29T02:05:00.542Z,87
2019-05-29T02:10:16.440Z,87
2019-05-29T02:15:34.538Z,87
2019-05-29T02:20:49.051Z,86
2019-05-29T02:26:04.166Z,86
2019-05-29T02:31:28.819Z,85
2019-05-29T02:36:42.586Z,86
2019-05-29T02:41:57.424Z,86
2019-05-29T02:47:13.875Z,86
2019-05-29T02:52:31.040Z,86
2019-05-29T02:57:47.033Z,86
2019-05-29T03:03:06.019Z,86
2019-05-29T03:08:28.988Z,87
2019-05-29T03:13:44.000Z,88
2019-05-29T03:18:59.371Z,88
2019-05-29T03:24:14.304Z,87
2019-05-29T03:29:34.500Z,86
2019-05-29T03:34:49.020Z,85
2019-05-29T03:40:03.910Z,87
2019-05-29T03:45:18.998Z,86
2019-05-29T03:50:35.426Z,85
2019-05-29T03:55:50.519Z,85
2019-05-29T04:01:05.721Z,85
2019-05-29T04:06:20.959Z,85
2019-05-29T04:11:38.571Z,84
2019-05-29T04:17:01.047Z,84
2019-05-29T04:22:16.286Z,84
2019-05-29T04:27:36.361Z,85
2019-05-29T04:32:52.702Z,85
2019-05-29T04:38:08.548Z,84
2019-05-29T04:43:24.051Z,83
2019-05-29T04:48:40.893Z,82
2019-05-29T04:53:55.516Z,82
2019-05-29T04:59:13.455Z,81
2019-05-29T05:04:31.445Z,80
2019-05-29T05:09:47.948Z,77
2019-05-29T05:15:04.184Z,73
2019-05-29T05:20:20.838Z,70
2019-05-29T05:25:38.821Z,68
2019-05-29T05:30:55.383Z,64
2019-05-29T05:41:26.913Z,61
2019-05-29T06:23:44.183Z,63
2019-05-29T06:28:57.836Z,63
2019-05-29T07:05:33.421Z,63
2019-05-29T07:10:49.958Z,63
2019-05-29T07:21:20.576Z,63
2019-05-29T07:26:37.706Z,62
2019-05-29T07:31:54.055Z,63
2019-05-29T07:37:09.772Z,62
2019-05-29T07:42:25.317Z,61
2019-05-29T07:47:40.587Z,61
2019-05-29T07:48:16.629Z,62
2019-05-29T07:53:34.142Z,61
2019-05-29T07:59:04.011Z,61
2019-05-29T08:04:15.697Z,60
2019-05-29T08:14:46.282Z,60
2019-05-29T08:20:37.959Z,61
2019-05-29T08:26:28.399Z,61
2019-05-29T08:31:44.975Z,60
2019-05-29T08:37:07.941Z,59
2019-05-29T08:47:38.042Z,60
2019-05-29T08:52:57.626Z,59
2019-05-29T08:58:13.690Z,59
2019-05-29T09:03:30.294Z,59
2019-05-29T09:08:54.690Z,59
2019-05-29T09:14:09.216Z,59
2019-05-29T09:24:36.674Z,59
2019-05-29T09:29:53.380Z,58
2019-05-29T09:40:24.739Z,58
2019-05-29T09:46:21.937Z,57
2019-05-29T09:51:36.170Z,56
2019-05-29T09:57:25.407Z,56
2019-05-29T10:02:40.089Z,55
2019-05-29T10:13:09.267Z,55
2019-05-29T10:18:33.492Z,54
2019-05-29T10:23:49.126Z,53
2019-05-29T10:29:10.913Z,53
2019-05-29T11:00:40.240Z,51
2019-05-29T11:05:56.932Z,52
2019-05-29T11:58:32.153Z,49
2019-05-29T12:04:27.294Z,49
2019-05-29T12:09:39.914Z,48
2019-05-29T12:30:37.972Z,47
2019-05-29T12:35:57.347Z,46
2019-05-29T12:41:14.087Z,45
2019-05-29T12:46:30.932Z,44
2019-05-29T12:51:44.879Z,43
2019-05-29T12:57:04.552Z,41
2019-05-29T13:02:20.515Z,41
2019-05-29T13:07:36.981Z,39
2019-05-29T17:34:17.459Z,43
2019-05-29T17:39:33.474Z,44
2019-05-29T17:44:48.787Z,45
2019-05-29T17:50:04.202Z,46
2019-05-29T17:55:26.565Z,46
2019-05-29T18:00:42.713Z,47
2019-05-29T18:05:57.710Z,48
2019-05-29T18:11:12.652Z,48
2019-05-29T18:16:28.209Z,48
2019-05-29T18:21:42.908Z,49
2019-05-29T18:26:59.792Z,49
2019-05-29T18:32:15.121Z,50
2019-05-29T18:37:32.849Z,50
2019-05-29T18:42:48.211Z,51
2019-05-29T18:48:03.254Z,51
2019-05-29T18:53:18.203Z,51
2019-05-29T18:58:33.275Z,52
2019-05-29T19:03:48.562Z,52
2019-05-29T19:09:03.794Z,53
2019-05-29T19:14:18.809Z,54
2019-05-29T19:19:33.018Z,54
2019-05-29T19:24:48.699Z,54
2019-05-29T19:30:03.704Z,54
2019-05-29T19:35:18.832Z,54
2019-05-29T19:40:35.099Z,54
2019-05-29T19:45:50.260Z,55
2019-05-29T19:51:06.850Z,55
2019-05-29T19:56:22.482Z,56
2019-05-29T20:01:40.982Z,55
2019-05-29T20:06:57.119Z,55
2019-05-29T20:12:13.112Z,55
2019-05-29T20:17:28.390Z,56
2019-05-29T20:22:43.187Z,56
2019-05-29T20:28:07.353Z,59
2019-05-29T20:33:21.345Z,60
2019-05-29T20:38:39.676Z,60
2019-05-29T20:43:54.640Z,60
2019-05-29T20:49:09.575Z,60
2019-05-29T20:54:25.619Z,60
2019-05-29T20:59:40.434Z,61
2019-05-29T21:04:55.543Z,61
2019-05-29T21:10:11.673Z,61
2019-05-29T21:15:26.767Z,62
2019-05-29T21:20:44.682Z,62
2019-05-29T21:26:00.554Z,62
2019-05-29T21:31:14.739Z,63
2019-05-29T21:36:31.023Z,63
2019-05-29T21:41:47.356Z,64
2019-05-29T21:47:02.403Z,64
2019-05-29T21:52:18.344Z,65
2019-05-29T21:58:10.002Z,66
2019-05-29T22:03:24.988Z,64
2019-05-29T22:08:41.282Z,65
2019-05-29T22:13:56.964Z,65
2019-05-29T22:19:12.039Z,65
2019-05-29T22:24:27.117Z,65
2019-05-29T22:29:42.187Z,66
2019-05-29T22:34:59.485Z,68
2019-05-29T22:40:14.250Z,71
2019-05-29T22:55:56.140Z,78
2019-05-29T23:01:12.270Z,79
2019-05-29T23:06:27.505Z,79
2019-05-29T23:11:44.105Z,79
2019-05-29T23:16:56.883Z,78
2019-05-29T23:22:13.964Z,79
2019-05-29T23:27:29.121Z,78
2019-05-29T23:32:44.037Z,80
2019-05-29T23:37:57.416Z,80
2019-05-29T23:43:13.179Z,81
2019-05-29T23:48:28.210Z,82
2019-05-29T23:53:43.352Z,81
